Time;durP1;ratioP1;P1;durP2;ratioP2;P2;SDS_P1;SDS_P2;PMS_P1;PMS_P2;Temp;Humidity;BMP_temperature;BMP_pressure;BME280_temperature;BME280_humidity;BME280_pressure;Samples;Min_cycle;Max_cycle;Signal;HPM_P1;HPM_P2
2023/12/04 00:00:31;;;;;;;1.13;1.13;;;;;;;3.20;100.00;100920.69;5013529;28;20204;-74
2023/12/04 00:02:58;;;;;;;1.00;1.00;;;;;;;3.18;100.00;100929.06;5012329;28;20252;-74
2023/12/04 00:05:24;;;;;;;1.00;1.00;;;;;;;3.33;98.19;100924.81;5013251;28;20259;-74
2023/12/04 00:07:51;;;;;;;1.43;1.40;;;;;;;3.25;99.07;100901.31;5011767;28;20263;-74
2023/12/04 00:10:18;;;;;;;0.90;0.90;;;;;;;3.37;99.29;100927.66;5013365;28;20193;-74
2023/12/04 00:12:45;;;;;;;1.10;1.10;;;;;;;3.20;99.19;100925.81;5012833;28;20271;-73
2023/12/04 00:15:12;;;;;;;1.00;1.00;;;;;;;3.16;100.00;100921.28;5013220;28;20204;-74
2023/12/04 00:17:40;;;;;;;1.87;1.87;;;;;;;3.20;99.91;100933.50;5013365;28;20193;-74
2023/12/04 00:20:08;;;;;;;1.00;1.00;;;;;;;3.23;100.00;100930.22;5013151;28;20240;-74
2023/12/04 00:22:35;;;;;;;1.00;1.00;;;;;;;3.01;100.00;100938.34;5012643;28;20308;-73
2023/12/04 00:25:03;;;;;;;1.03;1.03;;;;;;;3.02;100.00;100940.13;5012617;28;20203;-74
2023/12/04 00:27:29;;;;;;;0.90;0.90;;;;;;;2.93;100.00;100947.22;5013085;28;20263;-74
2023/12/04 00:29:56;;;;;;;1.20;1.20;;;;;;;2.88;100.00;100948.66;4993570;28;20206;-74
2023/12/04 00:32:23;;;;;;;0.93;0.93;;;;;;;2.96;100.00;100947.44;4976886;28;20286;-74
2023/12/04 00:34:51;;;;;;;1.20;1.20;;;;;;;2.98;100.00;100940.72;5010462;28;20209;-74
2023/12/04 00:37:18;;;;;;;0.97;0.97;;;;;;;2.69;100.00;100915.97;5012869;28;20635;-74
2023/12/04 00:39:45;;;;;;;1.00;1.00;;;;;;;2.90;100.00;100952.19;5012598;28;20201;-74
2023/12/04 00:42:11;;;;;;;1.10;1.10;;;;;;;2.94;99.92;100954.13;5012036;28;20686;-73
2023/12/04 00:44:38;;;;;;;1.40;1.40;;;;;;;2.82;100.00;100953.41;5012219;28;20259;-73
2023/12/04 00:47:05;;;;;;;1.00;1.00;;;;;;;2.92;99.12;100958.28;5012451;28;20200;-74
2023/12/04 00:49:32;;;;;;;1.27;1.27;;;;;;;2.79;99.47;100953.22;5013007;28;20204;-75
2023/12/04 00:52:00;;;;;;;1.77;1.67;;;;;;;2.98;100.00;100963.78;5012418;28;20205;-74
2023/12/04 00:54:27;;;;;;;1.00;1.00;;;;;;;2.83;100.00;100960.28;5007488;28;20199;-73
2023/12/04 00:56:54;;;;;;;1.00;1.00;;;;;;;2.80;98.85;100955.88;5012358;28;20263;-73
2023/12/04 00:59:20;;;;;;;1.93;1.83;;;;;;;2.87;99.00;100972.50;5012200;28;20205;-73
2023/12/04 01:01:47;;;;;;;1.10;1.10;;;;;;;2.85;99.32;100979.22;5012350;28;20673;-74
2023/12/04 01:04:14;;;;;;;1.63;1.57;;;;;;;2.88;98.59;100982.84;5012156;28;20228;-73
2023/12/04 01:06:41;;;;;;;1.00;1.00;;;;;;;2.80;98.48;100965.25;5012435;28;20263;-73
2023/12/04 01:09:09;;;;;;;1.00;1.00;;;;;;;2.88;98.05;100980.28;5012243;28;20193;-73
2023/12/04 01:11:36;;;;;;;1.00;1.00;;;;;;;2.82;97.33;100990.13;5012138;28;20205;-73
2023/12/04 01:14:03;;;;;;;1.77;1.77;;;;;;;2.74;97.99;100973.44;5011168;28;20216;-73
2023/12/04 01:16:30;;;;;;;1.00;1.00;;;;;;;2.74;99.65;100985.38;4992643;28;20210;-72
2023/12/04 01:18:57;;;;;;;1.37;1.37;;;;;;;2.81;98.14;100997.75;5001164;28;20256;-74
2023/12/04 01:21:24;;;;;;;1.60;1.60;;;;;;;2.73;97.97;100986.16;5012271;28;20207;-74
2023/12/04 01:23:51;;;;;;;1.10;1.10;;;;;;;2.76;97.76;100968.41;5011632;28;20229;-75
2023/12/04 01:26:19;;;;;;;1.10;1.10;;;;;;;2.80;97.57;100984.06;5011686;28;20216;-73
2023/12/04 01:28:45;;;;;;;1.17;1.17;;;;;;;2.81;96.60;100982.38;5011889;28;20200;-74
2023/12/04 01:31:12;;;;;;;1.00;1.00;;;;;;;2.76;96.21;100983.78;5012201;28;20212;-73
2023/12/04 01:33:39;;;;;;;0.90;0.90;;;;;;;2.82;95.94;100989.25;5011377;28;20201;-74
2023/12/04 01:36:07;;;;;;;0.90;0.90;;;;;;;2.87;95.25;100991.31;5011855;28;20725;-74
2023/12/04 01:38:33;;;;;;;1.17;1.17;;;;;;;2.67;96.15;100993.47;5011828;28;20204;-73
2023/12/04 01:41:00;;;;;;;1.67;1.57;;;;;;;2.56;97.22;100986.81;5012013;28;20208;-73
2023/12/04 01:43:29;;;;;;;1.00;1.00;;;;;;;2.65;96.92;100987.34;4976664;28;20228;-73
2023/12/04 01:45:57;;;;;;;1.00;1.00;;;;;;;2.38;97.33;100954.19;5011768;28;20689;-73
2023/12/04 01:48:25;;;;;;;1.10;1.10;;;;;;;2.43;97.16;100965.56;5011722;28;20255;-73
2023/12/04 01:50:52;;;;;;;1.90;1.37;;;;;;;2.65;98.34;100993.34;5011835;28;20208;-74
2023/12/04 01:53:19;;;;;;;1.00;1.00;;;;;;;2.69;97.64;100995.31;4976709;28;20201;-73
2023/12/04 01:55:47;;;;;;;3.20;2.33;;;;;;;2.62;97.78;100989.72;5011509;28;20204;-73
2023/12/04 01:58:14;;;;;;;3.93;3.53;;;;;;;2.45;98.85;100997.28;5011701;28;20204;-73
2023/12/04 02:00:42;;;;;;;1.50;1.50;;;;;;;2.56;97.35;100999.59;5011348;28;20208;-73
2023/12/04 02:03:10;;;;;;;1.63;1.53;;;;;;;2.33;97.96;100968.34;5013630;28;20233;-73
2023/12/04 02:05:38;;;;;;;1.17;1.17;;;;;;;2.40;98.09;100993.53;5011405;28;20209;-73
2023/12/04 02:08:05;;;;;;;1.33;1.33;;;;;;;2.31;97.81;100969.06;5011140;28;20293;-73
2023/12/04 02:10:32;;;;;;;1.87;1.77;;;;;;;2.27;96.92;100957.75;5011326;28;20204;-74
2023/12/04 02:12:59;;;;;;;1.40;1.40;;;;;;;2.46;96.65;101009.25;5010797;28;20708;-73
2023/12/04 02:15:27;;;;;;;0.90;0.90;;;;;;;2.32;97.03;101012.63;5011182;28;20300;-73
2023/12/04 02:17:56;;;;;;;1.80;1.80;;;;;;;2.33;98.94;101013.53;5011382;28;20200;-73
2023/12/04 02:20:32;;;;;;;1.20;1.20;;;;;;;2.42;97.96;101012.44;5011134;28;20209;-74
2023/12/04 02:22:59;;;;;;;1.00;1.00;;;;;;;2.37;97.09;101018.94;5010553;28;20640;-74
2023/12/04 02:25:27;;;;;;;1.80;1.43;;;;;;;2.11;97.46;100987.38;4992397;28;20196;-73
2023/12/04 02:27:55;;;;;;;1.10;1.10;;;;;;;2.14;96.18;100978.22;5010929;28;20196;-74
2023/12/04 02:30:25;;;;;;;1.00;1.00;;;;;;;2.53;95.38;101030.13;5010578;28;20205;-73
2023/12/04 02:32:53;;;;;;;1.10;1.10;;;;;;;2.26;96.42;101030.19;5010579;28;20661;-74
2023/12/04 02:35:23;;;;;;;1.57;1.57;;;;;;;2.20;96.28;101006.78;5010377;28;20570;-73
2023/12/04 02:37:51;;;;;;;0.90;0.90;;;;;;;2.21;96.69;101041.78;5014242;28;20213;-73
2023/12/04 02:40:18;;;;;;;1.00;1.00;;;;;;;2.33;94.74;101045.13;5023794;28;20208;-73
2023/12/04 02:42:47;;;;;;;1.50;1.50;;;;;;;2.24;95.06;101038.56;5011345;28;20551;-73
2023/12/04 02:45:13;;;;;;;1.30;1.30;;;;;;;2.29;94.33;101052.50;5006189;28;20201;-73
2023/12/04 02:47:40;;;;;;;1.80;1.70;;;;;;;2.25;94.32;101037.75;5011064;28;20204;-73
2023/12/04 02:50:08;;;;;;;1.10;1.10;;;;;;;2.28;93.59;101048.19;5010697;28;20208;-73
2023/12/04 02:52:35;;;;;;;1.10;1.10;;;;;;;2.09;94.46;101035.00;4976130;28;20208;-73
2023/12/04 02:55:01;;;;;;;1.07;1.07;;;;;;;2.25;95.34;101048.88;5010484;28;20215;-73
2023/12/04 02:57:28;;;;;;;1.53;1.33;;;;;;;2.13;94.19;101047.22;5010746;28;20208;-73
2023/12/04 02:59:56;;;;;;;6.03;5.53;;;;;;;2.23;94.10;101044.44;5010351;28;20201;-73
2023/12/04 03:02:23;;;;;;;1.00;1.00;;;;;;;2.16;95.72;101053.41;5009812;28;20209;-72
2023/12/04 03:04:50;;;;;;;1.63;1.63;;;;;;;2.10;94.96;101037.69;5010065;28;20260;-73
2023/12/04 03:07:19;;;;;;;1.27;1.27;;;;;;;2.01;95.23;101039.63;5010418;28;20215;-73
2023/12/04 03:09:46;;;;;;;1.00;1.00;;;;;;;2.27;94.39;101042.19;5010162;28;20288;-73
2023/12/04 03:12:13;;;;;;;1.07;1.07;;;;;;;2.05;93.81;101049.28;5009873;28;20577;-73
2023/12/04 03:14:40;;;;;;;1.93;1.83;;;;;;;1.98;94.65;101036.88;4974468;28;20213;-73
2023/12/04 03:17:08;;;;;;;1.30;1.30;;;;;;;1.95;94.69;101062.28;5010085;28;20212;-73
2023/12/04 03:19:35;;;;;;;1.00;1.00;;;;;;;1.21;95.43;100958.59;5009852;28;20224;-73
2023/12/04 03:22:02;;;;;;;1.10;1.10;;;;;;;1.79;94.88;101024.59;5009778;28;20205;-73
2023/12/04 03:24:29;;;;;;;0.93;0.93;;;;;;;1.28;94.02;100944.56;4984931;28;20267;-73
2023/12/04 03:26:56;;;;;;;3.50;1.77;;;;;;;1.84;93.79;101037.69;5009002;28;20212;-73
2023/12/04 03:29:23;;;;;;;1.10;1.10;;;;;;;1.74;94.27;101012.31;5010278;28;20207;-73
2023/12/04 03:31:49;;;;;;;1.10;1.10;;;;;;;2.05;94.49;101064.63;4979134;28;20216;-73
2023/12/04 03:34:17;;;;;;;1.00;1.00;;;;;;;1.96;93.70;101072.56;4975843;28;20201;-73
2023/12/04 03:36:44;;;;;;;2.00;1.50;;;;;;;1.97;93.24;101066.69;5010080;28;20209;-73
2023/12/04 03:39:11;;;;;;;1.20;1.20;;;;;;;2.02;93.60;101074.66;5010635;28;20212;-73
2023/12/04 03:41:38;;;;;;;2.13;2.07;;;;;;;2.06;93.05;101066.41;5010267;28;20189;-72
2023/12/04 03:44:04;;;;;;;1.63;1.53;;;;;;;1.94;93.99;101084.38;5013936;28;20220;-73
2023/12/04 03:46:32;;;;;;;0.90;0.90;;;;;;;1.70;93.83;101048.69;5013925;28;20258;-72
2023/12/04 03:48:58;;;;;;;1.00;1.00;;;;;;;2.01;93.34;101088.22;5009540;28;20660;-73
2023/12/04 03:51:27;;;;;;;1.10;1.10;;;;;;;1.97;93.98;101096.47;5017092;28;20204;-74
2023/12/04 03:53:53;;;;;;;1.10;1.10;;;;;;;1.85;94.27;101088.03;5013315;28;20204;-74
2023/12/04 03:56:20;;;;;;;0.90;0.90;;;;;;;1.90;92.84;101091.75;5012898;28;20197;-74
2023/12/04 03:58:47;;;;;;;1.00;1.00;;;;;;;2.31;98.04;101090.22;5011222;28;20275;-74
2023/12/04 04:01:14;;;;;;;1.30;1.30;;;;;;;2.03;94.04;101089.22;5013997;28;20201;-74
2023/12/04 04:03:42;;;;;;;1.10;1.10;;;;;;;1.99;94.01;101074.47;4994850;28;20228;-75
2023/12/04 04:06:10;;;;;;;1.20;1.20;;;;;;;1.86;93.88;101069.31;5013435;28;20247;-74
2023/12/04 04:08:38;;;;;;;1.17;1.17;;;;;;;1.95;94.78;101087.84;5013437;28;20201;-74
2023/12/04 04:11:05;;;;;;;1.00;1.00;;;;;;;1.94;94.84;101097.19;5013267;28;20205;-74
2023/12/04 04:13:31;;;;;;;0.90;0.90;;;;;;;1.79;94.69;101059.50;5012821;28;20220;-74
2023/12/04 04:15:58;;;;;;;1.03;1.03;;;;;;;1.96;94.78;101092.19;5013499;28;20205;-74
2023/12/04 04:18:25;;;;;;;2.50;2.40;;;;;;;1.81;93.96;101070.72;5013581;28;20711;-74
2023/12/04 04:20:52;;;;;;;3.37;3.07;;;;;;;1.95;95.54;101098.06;4978629;28;20213;-73
2023/12/04 04:23:19;;;;;;;1.90;1.90;;;;;;;1.91;95.22;101091.88;5013199;28;20204;-73
2023/12/04 04:25:47;;;;;;;1.10;1.10;;;;;;;2.10;100.00;101104.19;4995032;28;20200;-74
2023/12/04 04:28:13;;;;;;;1.60;1.60;;;;;;;1.89;100.00;101082.34;5012173;28;20485;-73
2023/12/04 04:30:41;;;;;;;2.07;1.97;;;;;;;2.07;100.00;101103.97;5009485;28;20454;-73
2023/12/04 04:33:07;;;;;;;0.90;0.90;;;;;;;2.10;97.32;101101.63;5012755;28;20756;-73
2023/12/04 04:35:34;;;;;;;1.30;1.30;;;;;;;1.86;96.56;101098.34;5011122;28;20569;-75
2023/12/04 04:38:01;;;;;;;0.90;0.90;;;;;;;1.86;95.92;101111.13;5012764;28;20205;-75
2023/12/04 04:40:27;;;;;;;1.30;1.30;;;;;;;1.88;96.68;101111.25;5012885;28;20212;-75
2023/12/04 04:42:56;;;;;;;1.00;1.00;;;;;;;1.94;98.36;101119.31;5008720;28;20673;-75
2023/12/04 04:45:22;;;;;;;1.00;1.00;;;;;;;1.91;98.11;101103.75;5029187;28;20232;-75
2023/12/04 04:47:49;;;;;;;1.20;1.20;;;;;;;1.79;98.08;101115.72;5023534;28;20214;-75
2023/12/04 04:50:16;;;;;;;1.10;1.10;;;;;;;1.62;100.00;101078.84;5013625;28;20205;-75
2023/12/04 04:52:43;;;;;;;1.10;1.10;;;;;;;1.65;100.00;101125.03;5012070;28;20220;-75
2023/12/04 04:55:09;;;;;;;1.30;1.30;;;;;;;1.68;100.00;101132.91;5012050;28;20244;-75
2023/12/04 04:57:36;;;;;;;1.10;1.10;;;;;;;1.54;100.00;101102.09;5012135;28;20193;-75
2023/12/04 05:00:05;;;;;;;1.00;1.00;;;;;;;1.73;100.00;101125.56;5012290;28;20600;-77
2023/12/04 05:02:32;;;;;;;1.30;1.30;;;;;;;1.75;100.00;101134.22;4993636;28;20204;-74
2023/12/04 05:04:59;;;;;;;5.50;3.87;;;;;;;1.43;100.00;101101.38;5012170;28;20231;-75
2023/12/04 05:07:25;;;;;;;0.90;0.90;;;;;;;1.72;100.00;101123.78;5012010;28;20197;-75
2023/12/04 05:09:52;;;;;;;1.37;1.37;;;;;;;1.55;99.17;101124.31;5011994;28;20692;-75
2023/12/04 05:12:19;;;;;;;1.20;1.20;;;;;;;1.62;98.87;101126.50;5011743;28;20204;-75
2023/12/04 05:14:46;;;;;;;1.63;1.63;;;;;;;0.86;100.00;101024.25;5012085;28;20204;-75
2023/12/04 05:17:14;;;;;;;1.00;1.00;;;;;;;1.58;99.54;101134.75;5012181;28;20224;-75
2023/12/04 05:19:41;;;;;;;0.87;0.87;;;;;;;1.42;99.79;101126.06;5011450;28;20623;-74
2023/12/04 05:22:08;;;;;;;1.23;1.23;;;;;;;1.56;99.03;101141.44;4992890;28;20596;-74
2023/12/04 05:24:35;;;;;;;1.10;1.10;;;;;;;1.60;98.91;101151.09;5011373;28;20784;-74
2023/12/04 05:27:02;;;;;;;1.20;1.20;;;;;;;1.48;98.89;101149.47;5011687;28;20734;-74
2023/12/04 05:29:29;;;;;;;1.33;1.33;;;;;;;1.47;98.80;101155.38;5011239;28;20204;-74
2023/12/04 05:31:57;;;;;;;1.10;1.10;;;;;;;1.46;98.22;101155.28;5011998;28;20557;-74
2023/12/04 05:34:25;;;;;;;1.83;1.80;;;;;;;1.61;98.61;101140.06;5011535;28;20212;-76
2023/12/04 05:36:51;;;;;;;1.37;1.37;;;;;;;1.59;97.45;101162.97;5011622;28;20572;-72
2023/12/04 05:39:18;;;;;;;1.20;1.20;;;;;;;1.64;97.66;101158.19;5011319;28;20193;-73
2023/12/04 05:41:45;;;;;;;1.10;1.10;;;;;;;1.46;97.82;101139.94;5011241;28;20196;-73
2023/12/04 05:44:12;;;;;;;1.20;1.20;;;;;;;1.39;98.89;101165.84;5011422;28;20235;-74
2023/12/04 05:46:38;;;;;;;1.17;1.17;;;;;;;1.45;99.04;101164.59;5011305;28;20193;-73
2023/12/04 05:49:05;;;;;;;1.10;1.10;;;;;;;1.55;98.94;101163.56;5011017;28;20696;-73
2023/12/04 05:51:33;;;;;;;2.33;2.23;;;;;;;1.61;98.30;101163.06;5011102;28;20208;-74
2023/12/04 05:54:00;;;;;;;1.20;1.20;;;;;;;1.68;98.66;101167.81;5011259;28;20193;-75
2023/12/04 05:56:27;;;;;;;1.30;1.30;;;;;;;1.60;98.29;101171.53;5011351;28;20197;-73
2023/12/04 05:58:54;;;;;;;1.00;1.00;;;;;;;1.78;100.00;101167.66;5011096;28;20201;-73
2023/12/04 06:01:20;;;;;;;1.00;1.00;;;;;;;1.78;100.00;101175.34;4973860;28;20681;-73
2023/12/04 06:03:47;;;;;;;1.10;1.10;;;;;;;1.73;99.64;101151.13;4992038;28;20197;-74
2023/12/04 06:06:14;;;;;;;1.10;1.10;;;;;;;1.75;97.30;101180.25;5010762;28;20212;-73
2023/12/04 06:08:42;;;;;;;1.20;1.20;;;;;;;1.92;100.00;101179.69;5010087;28;20252;-73
2023/12/04 06:11:09;;;;;;;1.43;1.43;;;;;;;1.74;96.60;101187.03;5010748;28;20201;-74
2023/12/04 06:13:35;;;;;;;1.10;1.10;;;;;;;1.52;98.08;101152.22;5010380;28;20643;-76
2023/12/04 06:16:03;;;;;;;1.10;1.10;;;;;;;1.65;96.71;101157.38;5010800;28;20600;-75
2023/12/04 06:18:29;;;;;;;1.40;1.40;;;;;;;1.82;97.26;101182.44;5009825;28;20658;-78
2023/12/04 06:20:56;;;;;;;4.13;3.73;;;;;;;1.78;97.61;101188.13;5010175;28;20213;-73
2023/12/04 06:23:24;;;;;;;1.00;1.00;;;;;;;1.73;96.60;101192.91;5009769;28;20207;-75
2023/12/04 06:25:52;;;;;;;1.20;1.20;;;;;;;1.78;97.41;101190.69;5010541;28;20235;-76
2023/12/04 06:28:20;;;;;;;1.40;1.40;;;;;;;1.79;98.02;101177.09;5010087;28;20209;-77
2023/12/04 06:30:47;;;;;;;1.10;1.10;;;;;;;1.68;96.72;101191.69;5010336;28;20201;-77
2023/12/04 06:33:15;;;;;;;1.20;1.20;;;;;;;1.70;94.95;101205.50;5010290;28;20815;-75
2023/12/04 06:35:42;;;;;;;1.00;1.00;;;;;;;1.75;94.70;101200.69;4991877;28;20719;-76
2023/12/04 06:38:09;;;;;;;1.00;1.00;;;;;;;1.73;95.88;101199.69;4975946;28;20707;-74
2023/12/04 06:40:36;;;;;;;1.43;1.43;;;;;;;1.55;92.97;101185.66;5009856;28;20224;-75
2023/12/04 06:43:05;;;;;;;2.17;2.07;;;;;;;1.86;94.21;101204.84;5009991;28;20699;-74
2023/12/04 06:45:33;;;;;;;1.30;1.30;;;;;;;1.88;93.77;101206.75;4975771;28;20224;-75
2023/12/04 06:48:01;;;;;;;1.50;1.50;;;;;;;1.79;93.07;101208.66;4991886;28;20279;-75
2023/12/04 06:50:27;;;;;;;1.67;1.63;;;;;;;1.92;97.21;101195.03;4974480;28;20690;-79
2023/12/04 06:52:54;;;;;;;1.17;1.17;;;;;;;1.96;94.02;101204.69;5010399;28;20208;-77
2023/12/04 06:55:21;;;;;;;1.57;1.57;;;;;;;1.96;93.51;101209.81;5010344;28;20209;-78
2023/12/04 06:57:48;;;;;;;1.10;1.10;;;;;;;1.97;94.79;101198.78;5010516;28;20200;-78
2023/12/04 07:00:17;;;;;;;1.53;1.53;;;;;;;2.11;93.17;101222.72;5010343;28;20213;-78
2023/12/04 07:02:44;;;;;;;1.00;1.00;;;;;;;1.99;91.49;101218.56;5010142;28;20600;-77
2023/12/04 07:05:11;;;;;;;1.10;1.10;;;;;;;2.15;92.37;101223.03;5010372;28;20251;-77
2023/12/04 07:07:37;;;;;;;1.00;1.00;;;;;;;2.10;91.02;101232.06;5010325;28;20702;-77
2023/12/04 07:10:05;;;;;;;0.90;0.90;;;;;;;2.27;94.43;101240.88;5010302;28;20738;-76
2023/12/04 07:12:32;;;;;;;1.10;1.10;;;;;;;2.17;90.83;101231.69;4991411;28;20236;-76
2023/12/04 07:14:58;;;;;;;1.10;1.10;;;;;;;2.23;91.49;101238.88;5010149;28;20221;-76
2023/12/04 07:17:27;;;;;;;1.10;1.10;;;;;;;2.27;90.36;101233.19;5011736;28;20208;-76
2023/12/04 07:19:54;;;;;;;1.07;1.07;;;;;;;2.10;89.80;101215.84;5013781;28;20229;-75
2023/12/04 07:22:20;;;;;;;1.53;1.53;;;;;;;2.28;90.34;101237.53;4979421;28;20275;-77
2023/12/04 07:24:47;;;;;;;1.40;1.30;;;;;;;2.30;89.79;101249.63;4979205;28;20225;-76
2023/12/04 07:27:14;;;;;;;1.10;1.10;;;;;;;2.54;89.50;101239.22;5014009;28;20200;-77
2023/12/04 07:29:41;;;;;;;0.90;0.90;;;;;;;2.48;90.23;101227.81;5014116;28;20204;-77
2023/12/04 07:32:08;;;;;;;1.00;1.00;;;;;;;2.41;88.22;101241.00;5013916;28;20208;-77
2023/12/04 07:34:36;;;;;;;1.13;1.13;;;;;;;2.30;89.13;101203.56;5013755;28;20292;-77
2023/12/04 07:37:03;;;;;;;1.07;1.07;;;;;;;2.49;90.31;101242.38;5013913;28;20771;-79
2023/12/04 07:39:30;;;;;;;1.57;1.57;;;;;;;2.48;88.94;101250.84;4978862;28;20204;-77
2023/12/04 07:41:57;;;;;;;1.10;1.10;;;;;;;2.45;87.69;101262.56;5013626;28;20664;-77
2023/12/04 07:44:24;;;;;;;1.20;1.20;;;;;;;2.27;88.76;101256.22;5013538;28;20208;-76
2023/12/04 07:46:50;;;;;;;1.30;1.30;;;;;;;2.38;88.25;101256.16;5013378;28;20201;-76
2023/12/04 07:49:17;;;;;;;0.90;0.90;;;;;;;2.54;89.81;101262.25;5013368;28;20201;-76
2023/12/04 07:51:45;;;;;;;1.93;1.83;;;;;;;2.74;88.61;101272.16;5013038;28;20209;-76
2023/12/04 07:54:12;;;;;;;0.90;0.90;;;;;;;2.65;88.77;101266.41;5013390;28;20220;-77
2023/12/04 07:56:39;;;;;;;2.87;1.57;;;;;;;2.25;88.07;101235.63;5013624;28;20680;-76
2023/12/04 07:59:05;;;;;;;1.30;1.30;;;;;;;2.63;88.06;101278.22;5012894;28;20204;-76
2023/12/04 08:01:32;;;;;;;0.90;0.90;;;;;;;2.60;88.11;101270.34;5013004;28;20216;-76
2023/12/04 08:03:59;;;;;;;1.00;0.97;;;;;;;2.64;87.40;101272.34;5012949;28;20217;-76
2023/12/04 08:06:26;;;;;;;1.20;1.20;;;;;;;2.79;86.09;101275.88;5013039;28;20228;-76
2023/12/04 08:08:54;;;;;;;2.07;1.97;;;;;;;2.72;86.40;101273.69;5012835;28;20193;-75
2023/12/04 08:11:21;;;;;;;0.90;0.90;;;;;;;2.64;85.80;101280.88;5012893;28;20208;-74
2023/12/04 08:13:47;;;;;;;1.00;1.00;;;;;;;2.85;85.75;101278.84;5012594;28;20205;-75
2023/12/04 08:16:15;;;;;;;1.10;1.10;;;;;;;2.60;84.59;101257.56;5012784;28;20212;-74
2023/12/04 08:18:43;;;;;;;0.87;0.87;;;;;;;2.76;85.30;101275.69;5012582;28;20616;-74
2023/12/04 08:21:10;;;;;;;1.30;1.30;;;;;;;2.63;84.30;101242.38;5012520;28;20284;-74
2023/12/04 08:23:37;;;;;;;1.00;1.00;;;;;;;2.68;84.47;101248.69;5012808;28;20208;-74
2023/12/04 08:26:05;;;;;;;1.23;1.23;;;;;;;2.79;84.07;101270.75;4994472;28;20228;-74
2023/12/04 08:28:33;;;;;;;1.27;1.27;;;;;;;2.59;81.89;101251.53;4998161;28;20204;-74
2023/12/04 08:31:00;;;;;;;1.20;1.20;;;;;;;2.54;82.71;101229.88;5012566;28;20207;-74
2023/12/04 08:33:27;;;;;;;0.90;0.90;;;;;;;2.89;84.14;101273.13;5011782;28;20200;-75
2023/12/04 08:35:54;;;;;;;1.00;1.00;;;;;;;2.94;85.79;101276.88;5012502;28;20201;-74
2023/12/04 08:38:21;;;;;;;1.00;1.00;;;;;;;2.82;83.30;101219.72;5012672;28;20215;-75
2023/12/04 08:40:48;;;;;;;1.37;1.37;;;;;;;3.20;82.80;101273.41;5012723;28;20219;-75
2023/12/04 08:43:16;;;;;;;1.10;1.10;;;;;;;3.09;82.09;101221.47;5012538;28;20213;-74
2023/12/04 08:45:42;;;;;;;1.33;1.33;;;;;;;3.39;81.44;101278.88;5012316;28;20228;-74
2023/12/04 08:48:10;;;;;;;0.90;0.90;;;;;;;3.44;81.13;101273.25;5012576;28;20258;-74
2023/12/04 08:50:37;;;;;;;1.10;1.10;;;;;;;2.96;79.81;101254.81;5012639;28;20251;-74
2023/12/04 08:53:04;;;;;;;0.97;0.97;;;;;;;3.04;80.26;101238.22;5012376;28;20201;-74
2023/12/04 08:55:31;;;;;;;0.80;0.80;;;;;;;3.21;80.11;101272.63;5012445;28;20205;-74
2023/12/04 08:57:58;;;;;;;0.80;0.80;;;;;;;3.30;81.46;101263.81;5012620;28;21016;-74
2023/12/04 09:00:26;;;;;;;0.90;0.90;;;;;;;3.47;80.61;101268.31;5011948;28;20636;-75
2023/12/04 09:02:53;;;;;;;0.80;0.80;;;;;;;3.54;80.55;101273.81;5012066;28;20262;-74
2023/12/04 09:05:20;;;;;;;1.10;1.10;;;;;;;3.52;80.43;101270.28;4974591;28;20598;-75
2023/12/04 09:07:46;;;;;;;1.60;1.50;;;;;;;3.30;79.37;101250.13;4993053;28;20204;-75
2023/12/04 09:10:13;;;;;;;1.57;1.57;;;;;;;3.31;79.45;101263.03;5003505;28;20263;-74
2023/12/04 09:12:40;;;;;;;1.43;1.43;;;;;;;3.67;79.66;101269.56;4973929;28;20205;-74
2023/12/04 09:15:08;;;;;;;1.27;1.27;;;;;;;3.43;79.06;101258.66;4967952;28;20672;-74
2023/12/04 09:17:36;;;;;;;0.90;0.90;;;;;;;3.51;79.93;101259.13;5012189;28;20197;-75
2023/12/04 09:20:05;;;;;;;1.10;1.10;;;;;;;3.64;79.77;101260.81;5011778;28;20232;-75
2023/12/04 09:22:34;;;;;;;0.90;0.90;;;;;;;3.39;80.20;101220.81;4977385;28;20200;-75
2023/12/04 09:25:01;;;;;;;2.83;1.47;;;;;;;3.57;78.36;101245.84;5011844;28;20200;-75
2023/12/04 09:27:28;;;;;;;0.80;0.80;;;;;;;2.77;79.32;101134.06;5012025;28;20255;-75
2023/12/04 09:29:55;;;;;;;1.17;1.17;;;;;;;3.37;79.94;101230.09;5011794;28;20223;-75
2023/12/04 09:32:21;;;;;;;0.97;0.97;;;;;;;3.49;80.84;101225.75;5011945;28;20201;-75
2023/12/04 09:34:49;;;;;;;1.00;1.00;;;;;;;3.68;80.69;101247.34;5011795;28;20615;-75
2023/12/04 09:37:16;;;;;;;1.00;1.00;;;;;;;4.14;96.65;101235.63;5011656;28;20205;-75
2023/12/04 09:39:43;;;;;;;1.40;1.40;;;;;;;3.96;83.52;101235.38;5011535;28;20204;-75
2023/12/04 09:42:11;;;;;;;1.73;1.70;;;;;;;3.84;80.89;101239.81;5011435;28;20204;-75
2023/12/04 09:44:38;;;;;;;0.90;0.90;;;;;;;3.73;81.00;101213.50;5011679;28;20204;-75
2023/12/04 09:47:06;;;;;;;1.10;1.10;;;;;;;3.87;80.68;101239.97;4977054;28;20225;-74
2023/12/04 09:49:33;;;;;;;1.00;1.00;;;;;;;4.10;81.17;101224.28;5011406;28;20283;-75
2023/12/04 09:52:02;;;;;;;1.10;1.10;;;;;;;4.25;79.67;101234.53;5011281;28;20222;-75
2023/12/04 09:54:30;;;;;;;1.10;1.10;;;;;;;4.39;79.20;101234.53;5009125;28;20201;-75
2023/12/04 09:56:57;;;;;;;1.77;1.67;;;;;;;4.54;80.35;101229.41;4968051;28;20221;-75
2023/12/04 09:59:26;;;;;;;1.10;1.10;;;;;;;4.57;79.16;101226.13;5011248;28;20205;-75
2023/12/04 10:01:53;;;;;;;1.00;1.00;;;;;;;4.18;78.37;101220.47;4963001;28;20697;-75
2023/12/04 10:04:21;;;;;;;2.37;1.30;;;;;;;4.02;79.63;101220.38;5004249;28;20209;-74
2023/12/04 10:06:51;;;;;;;0.90;0.90;;;;;;;4.05;80.00;101215.41;5010897;28;20837;-73
2023/12/04 10:09:22;;;;;;;1.63;1.63;;;;;;;4.07;80.91;101215.53;5010829;28;20715;-75
2023/12/04 10:11:50;;;;;;;1.33;1.30;;;;;;;4.21;80.85;101220.63;5006258;28;20202;-73
2023/12/04 10:14:19;;;;;;;1.10;1.10;;;;;;;4.49;78.97;101221.44;4979712;28;20204;-74
2023/12/04 10:16:46;;;;;;;1.00;1.00;;;;;;;4.20;79.39;101195.78;5008189;28;20208;-74
2023/12/04 10:19:18;;;;;;;0.87;0.87;;;;;;;4.39;76.97;101218.25;5011200;28;20626;-76
2023/12/04 10:21:46;;;;;;;1.10;1.10;;;;;;;4.11;78.92;101214.88;5010560;28;20747;-78
2023/12/04 10:24:14;;;;;;;0.90;0.90;;;;;;;4.25;80.31;101212.31;5010879;28;20251;-79
2023/12/04 10:26:51;;;;;;;0.83;0.83;;;;;;;4.16;78.84;101160.47;5010631;28;20267;-78
2023/12/04 10:29:18;;;;;;;1.10;1.10;;;;;;;4.38;79.71;101196.84;5010780;28;20208;-78
2023/12/04 10:31:45;;;;;;;1.63;1.30;;;;;;;4.44;76.78;101198.88;5010639;28;20212;-77
2023/12/04 10:34:11;;;;;;;1.00;1.00;;;;;;;4.32;78.26;101201.59;4997068;28;20208;-77
2023/12/04 10:36:38;;;;;;;1.00;1.00;;;;;;;4.37;76.50;101207.91;5010451;28;20224;-77
2023/12/04 10:39:05;;;;;;;1.10;1.10;;;;;;;4.25;75.21;101208.88;5010671;28;20204;-77
2023/12/04 10:41:32;;;;;;;1.20;1.20;;;;;;;4.50;74.30;101206.91;5007496;28;20279;-77
2023/12/04 10:44:01;;;;;;;3.20;2.90;;;;;;;4.41;74.02;101150.81;5010620;28;20234;-78
2023/12/04 10:46:29;;;;;;;0.80;0.80;;;;;;;4.67;75.15;101201.06;5010468;28;20599;-79
2023/12/04 10:48:58;;;;;;;1.20;1.20;;;;;;;4.57;76.06;101182.47;5010566;28;20263;-79
2023/12/04 10:51:27;;;;;;;1.10;1.10;;;;;;;4.59;75.62;101191.16;5009599;28;20224;-79
2023/12/04 10:53:54;;;;;;;0.90;0.90;;;;;;;4.58;75.76;101197.06;5010594;28;20215;-78
2023/12/04 10:56:28;;;;;;;0.90;0.90;;;;;;;4.76;75.62;101200.69;5010231;28;20196;-78
2023/12/04 10:58:58;;;;;;;1.00;1.00;;;;;;;4.80;83.33;101189.78;4996716;28;20191;-77
2023/12/04 11:01:27;;;;;;;1.67;1.57;;;;;;;4.26;75.71;101093.47;5009978;28;20204;-76
2023/12/04 11:03:59;;;;;;;1.10;1.10;;;;;;;4.77;76.51;101192.19;5010466;28;20208;-75
2023/12/04 11:06:30;;;;;;;1.00;1.00;;;;;;;4.79;75.67;101185.44;5010253;28;20231;-75
2023/12/04 11:08:59;;;;;;;1.63;1.60;;;;;;;4.13;75.75;101079.84;5010366;28;20215;-75
2023/12/04 11:11:29;;;;;;;0.97;0.97;;;;;;;4.68;76.14;101176.25;5009798;28;20192;-75
2023/12/04 11:13:59;;;;;;;1.20;1.20;;;;;;;4.69;74.46;101188.28;5010311;28;20215;-75
2023/12/04 11:16:35;;;;;;;1.10;1.10;;;;;;;4.87;75.11;101191.88;4975295;28;20264;-75
2023/12/04 11:19:12;;;;;;;1.00;1.00;;;;;;;4.87;74.75;101185.06;5010221;28;20575;-74
2023/12/04 11:21:40;;;;;;;1.67;1.17;;;;;;;4.76;74.94;101191.28;5009678;28;20251;-76
2023/12/04 11:24:08;;;;;;;1.13;1.13;;;;;;;4.77;74.36;101153.66;4989815;28;20201;-76
2023/12/04 11:26:35;;;;;;;1.10;1.10;;;;;;;5.05;75.31;101195.47;5010303;28;20217;-76
2023/12/04 11:29:04;;;;;;;1.20;1.20;;;;;;;5.05;74.45;101189.44;5010595;28;20212;-77
2023/12/04 11:31:32;;;;;;;1.77;1.67;;;;;;;4.93;73.89;101194.78;5010026;28;20208;-76